< < Back
Terminal Aerodrome Forecast


Current Version              Previous Versions:   1  2  3  4  5  6  7  8  9  

Terminal Aerodrome Forecast

303
FTUS44 KBMX 010457 AAD
TAFMGM
TAF AMD
KMGM 010457Z 0105/0124 17006KT P6SM BKN250
     FM011000 VRB03KT P6SM BKN015
     FM011400 16006KT P6SM VCTS BKN060CB=



Latest METAR

929
SAUS80 KWBC 010600 RRD
MTRMGM
METAR KMGM 010553Z 09003KT 10SM SCT030 BKN036 23/19 A2993 RMK AO2 SLP133
T02280194 10267 20228 403060183 53013


USA.gov is the U.S. government's official web portal to all federal, state and local government web resources and services.